Heppner, Oregon
Current Conditions -  °F | °C
As of 3:53 PM on Wednesday 22 Oct 2014 (Local Time) from KHRI Reporting Station
Light Rain Light Rain  
Wind Chill: 70°   Ceiling: 9000
Heat Index: 70°   Visibility: 10mi
Dew Point: 47°   Wind: 7mph
Humidity: 44%   Direction: 250°WSW
Pressure: 29.73"   Gusts: NA
Location:  45.35°N, 119.56°W
Report Text: KHRI 222253Z AUTO 25006KT 10SM -RA OVC090 21/08 A2973 RMK AO2 RAE02B44 SLP063 P0000 T02110083
Loading
Personal Weather Stations






























Interactive Weather Map
Tropical Storm Tracking
New forecast layout! Learn more

10-Day Weather Forecast

Advertisements
Track Severe Weather on mobile